createdAt,value
2023-03-02T00:00:48.275Z,22.67
2023-03-02T00:01:50.120Z,21.83
2023-03-02T00:02:51.989Z,21.72
2023-03-02T00:03:53.798Z,21.61
2023-03-02T00:04:55.652Z,21.32
2023-03-02T00:05:57.459Z,21.45
2023-03-02T00:06:59.310Z,21.10
2023-03-02T00:08:01.104Z,21.73
2023-03-02T00:09:02.898Z,21.39
2023-03-02T00:10:04.812Z,21.21
2023-03-02T00:11:06.610Z,19.79
2023-03-02T00:12:08.479Z,20.41
2023-03-02T00:13:10.292Z,19.90
2023-03-02T00:14:12.099Z,18.68
2023-03-02T00:15:13.897Z,18.04
2023-03-02T00:16:15.771Z,17.17
2023-03-02T00:17:17.655Z,18.15
2023-03-02T00:18:19.488Z,17.84
2023-03-02T00:19:21.290Z,17.05
2023-03-02T00:20:23.088Z,17.13
2023-03-02T00:21:24.910Z,16.82
2023-03-02T00:22:26.765Z,17.81
2023-03-02T00:23:28.558Z,15.90
2023-03-02T00:24:30.360Z,16.01
2023-03-02T00:25:32.167Z,17.15
2023-03-02T00:26:34.333Z,17.40
2023-03-02T00:27:36.414Z,17.27
2023-03-02T00:28:38.241Z,16.85
2023-03-02T00:29:40.033Z,17.88
2023-03-02T00:30:41.830Z,18.56
2023-03-02T00:31:43.698Z,18.43
2023-03-02T00:32:45.497Z,18.06
2023-03-02T00:33:47.315Z,17.99
2023-03-02T00:34:49.103Z,18.66
2023-03-02T00:35:50.964Z,17.20
2023-03-02T00:36:52.719Z,17.50
2023-03-02T00:37:54.562Z,18.41
2023-03-02T00:38:56.390Z,17.85
2023-03-02T00:39:58.196Z,18.51
2023-03-02T00:40:59.992Z,19.01
2023-03-02T00:42:01.812Z,18.57
2023-03-02T00:43:03.689Z,17.73
2023-03-02T00:44:05.465Z,17.09
2023-03-02T00:45:07.268Z,16.24
2023-03-02T00:46:09.763Z,16.80
2023-03-02T00:47:11.583Z,17.83
2023-03-02T00:48:13.447Z,18.10
2023-03-02T00:49:15.261Z,19.20
2023-03-02T00:50:17.157Z,18.80
2023-03-02T00:51:18.970Z,19.05
2023-03-02T00:52:20.768Z,18.42
2023-03-02T00:53:22.642Z,18.45
2023-03-02T00:54:24.560Z,16.95
2023-03-02T00:55:26.360Z,17.24
2023-03-02T00:56:28.186Z,16.31
2023-03-02T00:57:29.991Z,16.68
2023-03-02T00:58:31.844Z,16.99
2023-03-02T00:59:33.657Z,16.81
2023-03-02T01:00:35.465Z,16.35
2023-03-02T01:01:37.265Z,17.16
2023-03-02T01:02:39.253Z,16.03
2023-03-02T01:03:41.117Z,16.22
2023-03-02T01:04:42.933Z,17.05
2023-03-02T01:05:44.733Z,16.97
2023-03-02T01:06:46.560Z,18.54
2023-03-02T01:07:48.345Z,17.31
2023-03-02T01:08:50.201Z,17.93
2023-03-02T01:09:52.006Z,18.53
2023-03-02T01:10:54.422Z,16.83
2023-03-02T01:11:56.236Z,16.35
2023-03-02T01:12:58.061Z,16.83
2023-03-02T01:13:59.913Z,16.53
2023-03-02T01:15:01.705Z,17.12
2023-03-02T01:16:03.557Z,18.45
2023-03-02T01:17:05.414Z,18.99
2023-03-02T01:18:07.236Z,16.80
2023-03-02T01:19:09.096Z,16.72
2023-03-02T01:20:11.210Z,17.59
2023-03-02T01:21:13.029Z,17.19
2023-03-02T01:22:14.827Z,18.66
2023-03-02T01:23:16.622Z,19.99
2023-03-02T01:24:18.489Z,18.69
2023-03-02T01:25:20.207Z,17.95
2023-03-02T01:26:22.115Z,20.13
2023-03-02T01:27:23.927Z,19.84
2023-03-02T01:28:25.716Z,19.95
2023-03-02T01:29:27.572Z,21.84
2023-03-02T01:30:29.375Z,21.28
2023-03-02T01:31:31.302Z,20.59
2023-03-02T01:32:33.121Z,20.83
2023-03-02T01:33:35.006Z,21.33
2023-03-02T01:34:36.843Z,22.81
2023-03-02T01:35:38.673Z,21.41
2023-03-02T01:36:40.464Z,21.44
2023-03-02T01:37:42.154Z,21.57
2023-03-02T01:38:45.152Z,21.00
2023-03-02T01:39:47.058Z,21.53
2023-03-02T01:40:48.824Z,22.82
2023-03-02T01:41:50.616Z,22.36
2023-03-02T01:42:52.469Z,23.63
2023-03-02T01:43:54.245Z,21.91
2023-03-02T01:44:56.091Z,20.82
2023-03-02T01:45:58.032Z,21.08
2023-03-02T01:46:59.895Z,21.65
2023-03-02T01:48:01.698Z,22.03
2023-03-02T01:49:03.492Z,21.76
2023-03-02T01:50:05.675Z,21.61
2023-03-02T01:51:07.464Z,21.68
2023-03-02T01:52:09.256Z,22.06
2023-03-02T01:53:11.056Z,20.70
2023-03-02T01:54:12.859Z,21.17
2023-03-02T01:55:14.711Z,20.71
2023-03-02T01:56:16.524Z,20.58
2023-03-02T01:57:18.326Z,21.60
2023-03-02T01:58:20.137Z,21.47
2023-03-02T01:59:21.931Z,22.31
2023-03-02T02:00:23.798Z,24.12
2023-03-02T02:01:25.661Z,25.32
2023-03-02T02:02:27.506Z,26.23
2023-03-02T02:03:29.299Z,26.11
2023-03-02T02:04:31.114Z,26.15
2023-03-02T02:05:32.983Z,25.45
2023-03-02T02:06:35.012Z,25.51
2023-03-02T02:07:36.895Z,27.34
2023-03-02T02:08:38.722Z,28.63
2023-03-02T02:09:40.503Z,28.46
2023-03-02T02:10:42.546Z,26.75
2023-03-02T02:11:44.362Z,24.55
2023-03-02T02:12:46.135Z,24.84
2023-03-02T02:13:47.980Z,24.71
2023-03-02T02:14:49.749Z,23.68
2023-03-02T02:15:51.614Z,25.12
2023-03-02T02:16:53.444Z,25.06
2023-03-02T02:17:55.203Z,27.51
2023-03-02T02:18:57.005Z,26.61
2023-03-02T02:19:58.798Z,26.29
2023-03-02T02:21:00.858Z,25.82
2023-03-02T02:22:02.666Z,24.46
2023-03-02T02:23:04.452Z,25.53
2023-03-02T02:24:06.336Z,25.72
2023-03-02T02:25:08.149Z,23.83
2023-03-02T02:26:10.048Z,23.56
2023-03-02T02:27:11.809Z,23.59
2023-03-02T02:28:13.612Z,24.78
2023-03-02T02:29:15.418Z,25.23
2023-03-02T02:30:17.223Z,23.37
2023-03-02T02:31:19.134Z,24.98
2023-03-02T02:32:21.097Z,23.23
2023-03-02T02:33:22.994Z,22.32
2023-03-02T02:34:24.890Z,22.03
2023-03-02T02:35:26.688Z,22.57
2023-03-02T02:36:28.534Z,22.35
2023-03-02T02:37:30.347Z,21.61
2023-03-02T02:38:32.153Z,20.87
2023-03-02T02:39:33.945Z,19.91
2023-03-02T02:40:35.747Z,20.76
2023-03-02T02:41:37.596Z,21.85
2023-03-02T02:42:39.425Z,23.59
2023-03-02T02:43:41.222Z,23.04
2023-03-02T02:44:42.908Z,23.90
2023-03-02T02:45:44.787Z,23.05
2023-03-02T02:46:46.682Z,22.93
2023-03-02T02:47:48.497Z,22.85
2023-03-02T02:48:50.303Z,22.25
2023-03-02T02:49:52.091Z,22.73
2023-03-02T02:50:53.885Z,22.38
2023-03-02T02:51:55.741Z,22.47
2023-03-02T02:52:57.544Z,23.65
2023-03-02T02:53:59.353Z,22.47
2023-03-02T02:55:01.139Z,21.85
2023-03-02T02:56:03.173Z,21.48
2023-03-02T02:57:05.020Z,20.51
2023-03-02T02:58:06.812Z,20.61
2023-03-02T02:59:08.619Z,20.43
2023-03-02T03:00:10.931Z,20.45
2023-03-02T03:01:12.778Z,19.52
2023-03-02T03:02:14.784Z,18.41
2023-03-02T03:03:16.593Z,19.14
2023-03-02T03:04:18.411Z,19.64
2023-03-02T03:05:20.199Z,19.27
2023-03-02T03:06:22.010Z,18.18
2023-03-02T03:07:23.866Z,17.33
2023-03-02T03:08:25.670Z,16.48
2023-03-02T03:09:27.536Z,16.22
2023-03-02T03:10:29.363Z,16.38
2023-03-02T03:11:31.168Z,15.45
2023-03-02T03:12:33.136Z,15.11
2023-03-02T03:13:34.937Z,16.17
2023-03-02T03:14:36.739Z,16.33
2023-03-02T03:15:38.541Z,15.81
2023-03-02T03:16:40.379Z,15.53
2023-03-02T03:17:42.210Z,15.38
2023-03-02T03:18:44.004Z,15.10
2023-03-02T03:19:45.801Z,16.17
2023-03-02T03:20:47.607Z,15.58
2023-03-02T03:21:49.420Z,16.16
2023-03-02T03:22:51.269Z,15.94
2023-03-02T03:23:53.069Z,15.53
2023-03-02T03:24:54.874Z,16.32
2023-03-02T03:25:56.693Z,16.31
2023-03-02T03:26:58.502Z,16.19
2023-03-02T03:28:00.339Z,15.75
2023-03-02T03:29:02.135Z,14.73
2023-03-02T03:30:04.188Z,16.11
2023-03-02T03:31:06.085Z,17.47
2023-03-02T03:32:07.899Z,15.81
2023-03-02T03:33:09.739Z,15.16
2023-03-02T03:34:11.556Z,15.33
2023-03-02T03:35:13.376Z,14.45
2023-03-02T03:36:15.688Z,13.21
2023-03-02T03:37:17.495Z,14.35
2023-03-02T03:38:19.340Z,14.21
2023-03-02T03:39:21.159Z,13.18
2023-03-02T03:40:23.043Z,12.87
2023-03-02T03:41:24.851Z,13.11
2023-03-02T03:42:26.664Z,14.17
2023-03-02T03:43:28.512Z,13.00
2023-03-02T03:44:30.310Z,13.89
2023-03-02T03:45:32.327Z,14.05
2023-03-02T03:46:34.621Z,14.39
2023-03-02T03:47:36.665Z,13.09
2023-03-02T03:48:38.502Z,13.19
2023-03-02T03:49:40.303Z,12.98
2023-03-02T03:50:42.119Z,13.35
2023-03-02T03:51:43.912Z,12.61
2023-03-02T03:52:45.750Z,13.45
2023-03-02T03:53:47.591Z,13.49
2023-03-02T03:54:49.401Z,12.59
2023-03-02T03:55:51.202Z,12.76
2023-03-02T03:56:53.034Z,12.42
2023-03-02T03:57:54.854Z,12.94
2023-03-02T03:58:56.715Z,12.94
2023-03-02T03:59:58.506Z,13.43
2023-03-02T04:01:00.312Z,14.05
2023-03-02T04:02:02.124Z,14.01
2023-03-02T04:03:03.942Z,14.39
2023-03-02T04:04:05.785Z,14.67
2023-03-02T04:05:07.602Z,14.09
2023-03-02T04:06:09.702Z,14.24
2023-03-02T04:07:11.502Z,14.81
2023-03-02T04:08:13.204Z,15.59
2023-03-02T04:09:15.054Z,14.61
2023-03-02T04:10:16.965Z,14.31
2023-03-02T04:11:18.780Z,13.44
2023-03-02T04:12:20.597Z,13.76
2023-03-02T04:13:22.487Z,13.16
2023-03-02T04:14:24.382Z,13.25
2023-03-02T04:15:26.240Z,13.56
2023-03-02T04:16:28.006Z,13.41
2023-03-02T04:17:29.812Z,14.23
2023-03-02T04:18:31.611Z,14.25
2023-03-02T04:19:33.466Z,15.29
2023-03-02T04:20:35.295Z,15.34
2023-03-02T04:21:37.102Z,15.67
2023-03-02T04:22:38.899Z,16.77
2023-03-02T04:23:40.720Z,18.14
2023-03-02T04:24:42.582Z,21.05
2023-03-02T04:25:44.379Z,19.07
2023-03-02T04:26:46.196Z,19.05
2023-03-02T04:27:47.990Z,19.27
2023-03-02T04:28:49.820Z,17.41
2023-03-02T04:29:51.781Z,19.23
2023-03-02T04:30:53.688Z,19.67
2023-03-02T04:31:55.617Z,20.19
2023-03-02T04:32:57.437Z,18.32
2023-03-02T04:33:59.226Z,17.81
2023-03-02T04:35:01.084Z,19.05
2023-03-02T04:36:02.920Z,19.41
2023-03-02T04:37:04.710Z,20.22
2023-03-02T04:38:06.519Z,19.76
2023-03-02T04:39:08.322Z,18.92
2023-03-02T04:40:10.693Z,16.69
2023-03-02T04:41:12.492Z,17.11
2023-03-02T04:42:14.307Z,16.51
2023-03-02T04:43:16.132Z,15.31
2023-03-02T04:44:17.945Z,14.09
2023-03-02T04:45:19.797Z,14.32
2023-03-02T04:46:21.693Z,14.15
2023-03-02T04:47:23.518Z,13.01
2023-03-02T04:48:25.495Z,14.28
2023-03-02T04:49:27.301Z,14.38
2023-03-02T04:50:29.141Z,13.98
2023-03-02T04:51:30.975Z,13.96
2023-03-02T04:52:32.796Z,14.88
2023-03-02T04:53:34.583Z,15.63
2023-03-02T04:54:36.381Z,15.69
2023-03-02T04:55:38.221Z,14.81
2023-03-02T04:56:40.042Z,15.61
2023-03-02T04:57:41.847Z,16.11
2023-03-02T04:58:43.640Z,16.79
2023-03-02T04:59:45.447Z,17.81
2023-03-02T05:00:47.371Z,19.86
2023-03-02T05:01:49.303Z,19.74
2023-03-02T05:02:51.419Z,18.63
2023-03-02T05:03:53.245Z,20.30
2023-03-02T05:04:55.152Z,24.06
2023-03-02T05:05:57.073Z,24.79
2023-03-02T05:06:59.095Z,22.56
2023-03-02T05:08:00.811Z,22.49
2023-03-02T05:09:02.597Z,19.26
2023-03-02T05:10:04.606Z,17.61
2023-03-02T05:11:06.470Z,18.35
2023-03-02T05:12:08.265Z,17.54
2023-03-02T05:13:10.067Z,16.96
2023-03-02T05:14:11.883Z,15.89
2023-03-02T05:15:13.701Z,16.91
2023-03-02T05:16:15.706Z,15.39
2023-03-02T05:17:17.570Z,16.61
2023-03-02T05:18:19.368Z,15.24
2023-03-02T05:19:21.181Z,16.15
2023-03-02T05:20:22.986Z,16.72
2023-03-02T05:21:24.818Z,16.95
2023-03-02T05:22:26.626Z,17.83
2023-03-02T05:23:28.441Z,19.23
2023-03-02T05:24:30.239Z,21.87
2023-03-02T05:25:32.051Z,22.89
2023-03-02T05:26:34.274Z,20.63
2023-03-02T05:27:36.247Z,23.15
2023-03-02T05:28:38.048Z,23.28
2023-03-02T05:29:39.855Z,21.91
2023-03-02T05:30:41.667Z,21.36
2023-03-02T05:31:43.589Z,22.37
2023-03-02T05:32:45.341Z,23.71
2023-03-02T05:33:47.134Z,22.11
2023-03-02T05:34:48.957Z,22.92
2023-03-02T05:35:50.843Z,22.89
2023-03-02T05:36:52.754Z,22.71
2023-03-02T05:37:54.559Z,20.83
2023-03-02T05:38:56.361Z,19.99
2023-03-02T05:39:58.181Z,20.23
2023-03-02T05:40:59.988Z,19.62
2023-03-02T05:42:01.848Z,18.29
2023-03-02T05:43:03.653Z,18.45
2023-03-02T05:44:05.476Z,16.88
2023-03-02T05:45:07.281Z,16.88
2023-03-02T05:46:09.302Z,16.78
2023-03-02T05:47:11.179Z,15.46
2023-03-02T05:48:12.973Z,16.42
2023-03-02T05:49:14.775Z,17.86
2023-03-02T05:50:16.782Z,17.64
2023-03-02T05:51:18.586Z,17.33
2023-03-02T05:52:20.438Z,17.85
2023-03-02T05:53:22.298Z,27.00
2023-03-02T05:54:24.100Z,31.91
2023-03-02T05:55:25.894Z,28.69
2023-03-02T05:56:27.715Z,27.23
2023-03-02T05:57:29.586Z,25.72
2023-03-02T05:58:31.376Z,21.07
2023-03-02T05:59:33.176Z,18.84
2023-03-02T06:00:34.986Z,19.35
2023-03-02T06:01:36.854Z,17.99
2023-03-02T06:02:38.669Z,15.28
2023-03-02T06:03:40.449Z,15.81
2023-03-02T06:04:42.238Z,14.73
2023-03-02T06:05:44.047Z,15.69
2023-03-02T06:06:45.955Z,15.81
2023-03-02T06:07:47.788Z,15.44
2023-03-02T06:08:49.612Z,16.58
2023-03-02T06:09:51.398Z,16.21
2023-03-02T06:10:53.205Z,15.82
2023-03-02T06:11:55.020Z,16.21
2023-03-02T06:12:56.868Z,16.09
2023-03-02T06:13:58.684Z,13.33
2023-03-02T06:15:00.568Z,13.87
2023-03-02T06:16:02.436Z,14.93
2023-03-02T06:17:04.278Z,15.09
2023-03-02T06:18:06.135Z,14.25
2023-03-02T06:19:07.954Z,13.31
2023-03-02T06:20:09.967Z,13.36
2023-03-02T06:21:11.817Z,13.68
2023-03-02T06:22:13.617Z,13.07
2023-03-02T06:23:15.580Z,12.79
2023-03-02T06:24:17.382Z,12.66
2023-03-02T06:25:19.181Z,12.55
2023-03-02T06:26:21.104Z,13.07
2023-03-02T06:27:22.914Z,14.12
2023-03-02T06:28:24.762Z,15.17
2023-03-02T06:29:26.576Z,16.39
2023-03-02T06:30:28.378Z,14.09
2023-03-02T06:31:30.190Z,12.79
2023-03-02T06:32:32.010Z,12.91
2023-03-02T06:33:33.825Z,12.82
2023-03-02T06:34:35.629Z,12.29
2023-03-02T06:35:37.553Z,12.62
2023-03-02T06:36:39.600Z,12.52
2023-03-02T06:37:44.057Z,12.45
2023-03-02T06:38:45.143Z,12.78
2023-03-02T06:39:46.965Z,12.07
2023-03-02T06:40:48.743Z,11.63
2023-03-02T06:41:50.548Z,12.36
2023-03-02T06:42:52.345Z,12.57
2023-03-02T06:43:54.207Z,13.13
2023-03-02T06:44:56.030Z,13.84
2023-03-02T06:45:57.855Z,13.44
2023-03-02T06:46:59.637Z,13.14
2023-03-02T06:48:01.430Z,12.48
2023-03-02T06:49:03.281Z,11.98
2023-03-02T06:50:05.099Z,12.47
2023-03-02T06:51:06.876Z,12.75
2023-03-02T06:52:08.715Z,11.55
2023-03-02T06:53:10.542Z,12.23
2023-03-02T06:54:12.394Z,11.31
2023-03-02T06:55:14.193Z,11.62
2023-03-02T06:56:16.209Z,10.82
2023-03-02T06:57:17.995Z,10.95
2023-03-02T06:58:19.810Z,10.83
2023-03-02T06:59:21.664Z,10.32
2023-03-02T07:00:25.657Z,10.26
2023-03-02T07:01:27.140Z,10.56
2023-03-02T07:02:29.012Z,10.92
2023-03-02T07:03:30.873Z,10.11
2023-03-02T07:04:32.669Z,10.15
2023-03-02T07:05:34.478Z,9.13
2023-03-02T07:06:36.279Z,8.92
2023-03-02T07:07:38.074Z,8.98
2023-03-02T07:08:39.921Z,9.15
2023-03-02T07:09:41.786Z,8.79
2023-03-02T07:10:43.578Z,8.85
2023-03-02T07:11:45.374Z,8.39
2023-03-02T07:12:47.385Z,8.68
2023-03-02T07:13:49.207Z,9.09
2023-03-02T07:14:51.050Z,8.33
2023-03-02T07:15:52.859Z,10.38
2023-03-02T07:16:54.909Z,9.56
2023-03-02T07:17:56.677Z,9.11
2023-03-02T07:18:58.471Z,10.20
2023-03-02T07:20:00.310Z,8.75
2023-03-02T07:21:02.107Z,8.17
2023-03-02T07:22:03.922Z,8.51
2023-03-02T07:23:05.726Z,9.37
2023-03-02T07:24:07.541Z,9.56
2023-03-02T07:25:09.376Z,8.75
2023-03-02T07:26:11.473Z,8.45
2023-03-02T07:27:13.299Z,7.94
2023-03-02T07:28:15.087Z,9.15
2023-03-02T07:29:16.908Z,7.51
2023-03-02T07:30:18.886Z,7.39
2023-03-02T07:31:20.718Z,7.84
2023-03-02T07:32:22.579Z,5.92
2023-03-02T07:33:24.424Z,5.68
2023-03-02T07:34:26.765Z,6.53
2023-03-02T07:35:28.770Z,6.33
2023-03-02T07:36:30.618Z,6.78
2023-03-02T07:37:32.412Z,6.28
2023-03-02T07:38:34.219Z,5.77
2023-03-02T07:39:36.021Z,5.45
2023-03-02T07:40:37.886Z,5.49
2023-03-02T07:41:39.688Z,5.42
2023-03-02T07:42:41.495Z,5.66
2023-03-02T07:43:43.321Z,5.03
2023-03-02T07:44:45.127Z,5.17
2023-03-02T07:45:46.979Z,5.68
2023-03-02T07:46:48.867Z,5.08
2023-03-02T07:47:50.813Z,5.85
2023-03-02T07:48:52.629Z,5.95
2023-03-02T07:49:54.435Z,4.86
2023-03-02T07:50:56.289Z,4.51
2023-03-02T07:51:58.108Z,4.71
2023-03-02T07:53:00.162Z,4.33
2023-03-02T07:54:02.046Z,3.97
2023-03-02T07:55:03.838Z,4.51
2023-03-02T07:56:05.791Z,4.05
2023-03-02T07:57:07.621Z,4.31
2023-03-02T07:58:09.426Z,5.04
2023-03-02T07:59:11.228Z,5.09
2023-03-02T08:00:14.151Z,5.86
2023-03-02T08:01:16.052Z,5.87
2023-03-02T08:02:17.847Z,5.35
2023-03-02T08:03:19.648Z,5.59
2023-03-02T08:04:21.475Z,5.63
2023-03-02T08:05:23.285Z,6.02
2023-03-02T08:06:25.127Z,5.82
2023-03-02T08:07:26.958Z,4.62
2023-03-02T08:08:28.759Z,6.20
2023-03-02T08:09:30.580Z,5.70
2023-03-02T08:10:32.582Z,3.92
2023-03-02T08:11:34.729Z,4.13
2023-03-02T08:12:36.744Z,5.92
2023-03-02T08:13:38.591Z,4.49
2023-03-02T08:14:40.400Z,3.13
2023-03-02T08:15:42.200Z,3.96
2023-03-02T08:16:44.341Z,4.37
2023-03-02T08:17:46.166Z,3.91
2023-03-02T08:18:48.069Z,3.67
2023-03-02T08:19:49.914Z,4.16
2023-03-02T08:20:51.831Z,4.59
2023-03-02T08:21:53.719Z,3.94
2023-03-02T08:22:55.504Z,3.44
2023-03-02T08:23:57.331Z,3.08
2023-03-02T08:24:59.109Z,3.13
2023-03-02T08:26:00.914Z,2.41
2023-03-02T08:27:02.777Z,2.47
2023-03-02T08:28:04.601Z,2.73
2023-03-02T08:29:06.396Z,2.69
2023-03-02T08:30:09.019Z,2.40
2023-03-02T08:31:10.959Z,2.77
2023-03-02T08:32:13.076Z,2.41
2023-03-02T08:33:14.949Z,3.41
2023-03-02T08:34:16.772Z,3.19
2023-03-02T08:35:18.603Z,2.09
2023-03-02T08:36:20.400Z,3.11
2023-03-02T08:37:22.265Z,2.78
2023-03-02T08:38:24.069Z,2.67
2023-03-02T08:39:27.379Z,2.37
2023-03-02T08:40:29.497Z,1.94
2023-03-02T08:41:31.517Z,2.03
2023-03-02T08:42:33.642Z,1.49
2023-03-02T08:43:35.473Z,2.13
2023-03-02T08:44:37.385Z,2.69
2023-03-02T08:45:39.223Z,2.37
2023-03-02T08:46:41.009Z,3.89
2023-03-02T08:47:42.849Z,2.79
2023-03-02T08:48:44.656Z,3.57
2023-03-02T08:49:48.001Z,3.26
2023-03-02T08:50:50.199Z,2.17
2023-03-02T08:51:51.993Z,3.10
2023-03-02T08:52:53.842Z,5.85
2023-03-02T08:53:55.667Z,3.45
2023-03-02T08:54:57.501Z,2.69
2023-03-02T08:56:01.092Z,3.26
2023-03-02T08:57:03.125Z,3.34
2023-03-02T08:58:04.955Z,3.67
2023-03-02T08:59:06.772Z,2.84
2023-03-02T09:00:09.599Z,3.60
2023-03-02T09:01:11.446Z,3.13
2023-03-02T09:02:13.223Z,2.68
2023-03-02T09:03:15.080Z,2.93
2023-03-02T09:04:17.029Z,3.14
2023-03-02T09:05:18.869Z,3.51
2023-03-02T09:06:20.711Z,5.23
2023-03-02T09:07:22.519Z,9.57
2023-03-02T09:08:24.352Z,9.77
2023-03-02T09:09:26.180Z,4.91
2023-03-02T09:10:27.979Z,4.36
2023-03-02T09:11:29.804Z,4.39
2023-03-02T09:12:31.609Z,4.19
2023-03-02T09:13:33.453Z,5.28
2023-03-02T09:14:35.260Z,3.28
2023-03-02T09:15:37.082Z,2.35
2023-03-02T09:16:39.061Z,2.32
2023-03-02T09:17:40.898Z,3.40
2023-03-02T09:18:42.751Z,11.67
2023-03-02T09:19:44.786Z,12.73
2023-03-02T09:20:46.679Z,5.61
2023-03-02T09:21:48.473Z,6.85
2023-03-02T09:22:50.290Z,4.80
2023-03-02T09:23:52.138Z,3.28
2023-03-02T09:24:53.964Z,3.34
2023-03-02T09:25:55.774Z,2.21
2023-03-02T09:26:57.572Z,2.73
2023-03-02T09:27:59.387Z,4.17
2023-03-02T09:29:01.236Z,4.18
2023-03-02T09:30:03.250Z,2.75
2023-03-02T09:31:05.087Z,3.49
2023-03-02T09:32:07.033Z,4.01
2023-03-02T09:33:08.957Z,3.65
2023-03-02T09:34:10.772Z,8.73
2023-03-02T09:35:12.570Z,7.30
2023-03-02T09:36:14.907Z,6.59
2023-03-02T09:37:16.726Z,5.57
2023-03-02T09:38:18.590Z,4.01
2023-03-02T09:39:20.584Z,4.98
2023-03-02T09:40:22.384Z,4.86
2023-03-02T09:41:24.193Z,16.13
2023-03-02T09:42:38.099Z,8.05
2023-03-02T09:43:29.626Z,4.81
2023-03-02T09:44:31.496Z,3.80
2023-03-02T09:45:33.315Z,4.11
2023-03-02T09:46:35.104Z,3.55
2023-03-02T09:47:36.925Z,3.84
2023-03-02T09:48:38.727Z,3.80
2023-03-02T09:49:40.599Z,3.16
2023-03-02T09:50:42.591Z,3.53
2023-03-02T09:51:44.406Z,4.24
2023-03-02T09:52:46.240Z,4.18
2023-03-02T09:53:48.043Z,4.64
2023-03-02T09:54:49.912Z,3.66
2023-03-02T09:55:51.718Z,5.07
2023-03-02T09:56:53.638Z,3.91
2023-03-02T09:57:55.470Z,2.89
2023-03-02T09:58:57.269Z,3.73
2023-03-02T10:00:04.013Z,3.51
2023-03-02T10:01:02.752Z,4.62
2023-03-02T10:02:04.609Z,4.95
2023-03-02T10:03:16.766Z,3.92
2023-03-02T10:04:10.138Z,4.73
2023-03-02T10:05:12.052Z,4.12
2023-03-02T10:06:14.081Z,3.73
2023-03-02T10:07:15.993Z,3.46
2023-03-02T10:08:17.820Z,3.74
2023-03-02T10:09:19.643Z,3.29
2023-03-02T10:10:21.621Z,2.55
2023-03-02T10:11:23.452Z,2.54
2023-03-02T10:12:25.243Z,2.69
2023-03-02T10:13:27.061Z,2.55
2023-03-02T10:14:28.884Z,2.51
2023-03-02T10:15:30.781Z,2.79
2023-03-02T10:16:33.236Z,2.13
2023-03-02T10:17:35.333Z,2.36
2023-03-02T10:18:37.176Z,2.62
2023-03-02T10:19:38.982Z,2.74
2023-03-02T10:20:40.850Z,2.64
2023-03-02T10:21:42.650Z,2.17
2023-03-02T10:22:44.472Z,2.72
2023-03-02T10:23:46.298Z,2.59
2023-03-02T10:24:48.108Z,2.54
2023-03-02T10:25:49.957Z,2.36
2023-03-02T10:26:51.873Z,2.77
2023-03-02T10:27:53.761Z,2.55
2023-03-02T10:28:55.659Z,2.78
2023-03-02T10:29:57.500Z,2.78
2023-03-02T10:30:59.519Z,2.65
2023-03-02T10:32:01.373Z,3.07
2023-03-02T10:33:03.134Z,2.74
2023-03-02T10:34:04.958Z,2.54
2023-03-02T10:35:06.780Z,2.67
2023-03-02T10:36:08.641Z,2.63
2023-03-02T10:37:10.459Z,2.65
2023-03-02T10:38:12.267Z,2.37
2023-03-02T10:39:14.088Z,1.96
2023-03-02T10:40:16.450Z,1.95
2023-03-02T10:41:18.362Z,1.97
2023-03-02T10:42:20.151Z,2.23
2023-03-02T10:43:21.909Z,1.61
2023-03-02T10:44:23.830Z,2.41
2023-03-02T10:45:25.604Z,2.21
2023-03-02T10:46:27.477Z,2.03
2023-03-02T10:47:29.333Z,2.01
2023-03-02T10:48:31.310Z,2.83
2023-03-02T10:49:33.147Z,2.29
2023-03-02T10:50:34.965Z,2.50
2023-03-02T10:51:36.857Z,2.41
2023-03-02T10:52:42.367Z,2.34
2023-03-02T10:53:42.724Z,2.34
2023-03-02T10:54:44.550Z,2.97
2023-03-02T10:55:46.341Z,2.65
2023-03-02T10:56:48.301Z,2.53
2023-03-02T10:57:50.144Z,2.76
2023-03-02T10:58:51.958Z,2.57
2023-03-02T10:59:53.799Z,2.85
2023-03-02T11:00:55.886Z,2.51
2023-03-02T11:01:57.882Z,2.41
2023-03-02T11:02:59.723Z,2.92
2023-03-02T11:04:01.534Z,2.26
2023-03-02T11:05:03.680Z,1.96
2023-03-02T11:06:05.698Z,2.54
2023-03-02T11:07:07.565Z,2.39
2023-03-02T11:08:09.351Z,2.39
2023-03-02T11:09:11.155Z,2.91
2023-03-02T11:10:13.989Z,2.89
2023-03-02T11:11:15.803Z,3.06
2023-03-02T11:12:17.666Z,2.66
2023-03-02T11:13:19.459Z,2.71
2023-03-02T11:14:21.258Z,2.90
2023-03-02T11:15:23.107Z,2.47
2023-03-02T11:16:25.040Z,2.61
2023-03-02T11:17:26.870Z,2.27
2023-03-02T11:18:28.667Z,2.55
2023-03-02T11:19:30.492Z,2.85
2023-03-02T11:20:32.288Z,3.09
2023-03-02T11:21:34.384Z,3.86
2023-03-02T11:22:36.468Z,4.02
2023-03-02T11:23:38.184Z,4.25
2023-03-02T11:24:39.978Z,4.30
2023-03-02T11:25:41.780Z,4.21
2023-03-02T11:26:43.583Z,3.39
2023-03-02T11:27:45.444Z,3.42
2023-03-02T11:28:47.262Z,3.99
2023-03-02T11:29:49.067Z,3.19
2023-03-02T11:30:50.990Z,2.93
2023-03-02T11:31:52.895Z,3.37
2023-03-02T11:32:55.780Z,2.95
2023-03-02T11:33:59.823Z,2.88
2023-03-02T11:35:01.243Z,3.08
2023-03-02T11:36:03.212Z,3.07
2023-03-02T11:37:05.078Z,3.15
2023-03-02T11:38:06.931Z,3.80
2023-03-02T11:39:08.744Z,3.08
2023-03-02T11:40:11.060Z,2.71
2023-03-02T11:41:12.866Z,3.05
2023-03-02T11:42:14.690Z,2.56
2023-03-02T11:43:16.540Z,2.63
2023-03-02T11:44:18.358Z,2.41
2023-03-02T11:45:20.149Z,2.21
2023-03-02T11:46:23.332Z,2.87
2023-03-02T11:47:25.735Z,2.95
2023-03-02T11:48:27.631Z,2.13
2023-03-02T11:49:29.438Z,2.57
2023-03-02T11:50:31.243Z,2.95
2023-03-02T11:51:33.290Z,2.37
2023-03-02T11:52:35.290Z,2.55
2023-03-02T11:53:37.208Z,2.73
2023-03-02T11:54:39.069Z,2.46
2023-03-02T11:55:40.861Z,2.46
2023-03-02T11:56:42.749Z,2.51
2023-03-02T11:57:44.556Z,2.72
2023-03-02T11:58:46.443Z,3.20
2023-03-02T11:59:48.399Z,2.25
2023-03-02T12:00:50.196Z,2.13
2023-03-02T12:01:52.193Z,1.84
2023-03-02T12:02:54.475Z,2.34
2023-03-02T12:03:56.289Z,3.04
2023-03-02T12:04:58.405Z,2.95
2023-03-02T12:06:00.236Z,3.42
2023-03-02T12:07:02.087Z,3.42
2023-03-02T12:08:03.916Z,2.25
2023-03-02T12:09:05.845Z,3.63
2023-03-02T12:10:08.924Z,3.88
2023-03-02T12:11:10.745Z,2.94
2023-03-02T12:12:12.554Z,2.49
2023-03-02T12:13:14.372Z,2.88
2023-03-02T12:14:16.277Z,2.91
2023-03-02T12:15:19.126Z,2.76
2023-03-02T12:16:21.131Z,2.83
2023-03-02T12:17:22.974Z,2.94
2023-03-02T12:18:24.818Z,3.29
2023-03-02T12:19:26.662Z,3.08
2023-03-02T12:20:28.475Z,3.99
2023-03-02T12:21:30.268Z,2.91
2023-03-02T12:22:32.090Z,3.00
2023-03-02T12:23:33.896Z,2.87
2023-03-02T12:24:36.804Z,3.49
2023-03-02T12:25:38.660Z,3.09
2023-03-02T12:26:40.697Z,2.95
2023-03-02T12:27:42.502Z,2.68
2023-03-02T12:28:44.316Z,2.81
2023-03-02T12:29:46.308Z,2.53
2023-03-02T12:30:48.223Z,2.53
2023-03-02T12:31:50.169Z,3.24
2023-03-02T12:32:51.988Z,1.87
2023-03-02T12:33:53.817Z,2.66
2023-03-02T12:34:55.698Z,2.27
2023-03-02T12:35:57.516Z,3.28
2023-03-02T12:36:59.373Z,2.34
2023-03-02T12:38:01.230Z,2.38
2023-03-02T12:39:03.439Z,2.69
2023-03-02T12:40:05.295Z,2.90
2023-03-02T12:41:07.087Z,3.66
2023-03-02T12:42:08.929Z,3.99
2023-03-02T12:43:10.767Z,3.30
2023-03-02T12:44:12.666Z,3.09
2023-03-02T12:45:14.617Z,2.66
2023-03-02T12:46:16.811Z,2.58
2023-03-02T12:47:19.349Z,2.11
2023-03-02T12:48:21.412Z,2.39
2023-03-02T12:49:23.441Z,3.40
2023-03-02T12:50:25.337Z,3.59
2023-03-02T12:51:27.282Z,2.78
2023-03-02T12:52:29.192Z,3.64
2023-03-02T12:53:30.998Z,3.34
2023-03-02T12:54:32.791Z,2.61
2023-03-02T12:55:34.718Z,2.21
2023-03-02T12:56:36.879Z,2.23
2023-03-02T12:57:38.920Z,5.55
2023-03-02T12:58:40.727Z,5.14
2023-03-02T12:59:42.563Z,2.79
2023-03-02T13:00:44.670Z,2.55
2023-03-02T13:01:46.548Z,2.25
2023-03-02T13:02:48.471Z,2.37
2023-03-02T13:03:50.368Z,4.12
2023-03-02T13:04:52.176Z,2.75
2023-03-02T13:05:54.045Z,2.55
2023-03-02T13:06:55.832Z,3.20
2023-03-02T13:07:57.664Z,2.99
2023-03-02T13:08:59.506Z,2.63
2023-03-02T13:10:01.341Z,2.50
2023-03-02T13:11:03.325Z,3.79
2023-03-02T13:12:05.109Z,2.67
2023-03-02T13:13:07.135Z,2.82
2023-03-02T13:14:08.929Z,4.74
2023-03-02T13:15:10.742Z,5.15
2023-03-02T13:16:12.828Z,4.59
2023-03-02T13:17:14.630Z,3.44
2023-03-02T13:18:16.421Z,2.81
2023-03-02T13:19:18.236Z,2.75
2023-03-02T13:20:20.159Z,3.25
2023-03-02T13:21:22.044Z,4.01
2023-03-02T13:22:23.927Z,3.39
2023-03-02T13:23:25.697Z,3.02
2023-03-02T13:24:27.593Z,4.02
2023-03-02T13:25:29.429Z,3.70
2023-03-02T13:26:31.874Z,3.75
2023-03-02T13:27:34.090Z,5.47
2023-03-02T13:28:35.965Z,6.97
2023-03-02T13:29:37.820Z,3.71